Time;durP1;ratioP1;P1;durP2;ratioP2;P2;SDS_P1;SDS_P2;PMS_P1;PMS_P2;Temp;Humidity;BMP_temperature;BMP_pressure;BME280_temperature;BME280_humidity;BME280_pressure;Samples;Min_cycle;Max_cycle;Signal;HPM_P1;HPM_P2
2023/07/05 00:01:41;;;;;;;5.78;4.35;;;;;;;;;;5020132;28;20425;-81
2023/07/05 00:04:07;;;;;;;5.97;4.28;;;;;;;;;;5019423;28;20049;-81
2023/07/05 00:06:33;;;;;;;5.50;4.25;;;;;;;;;;5018612;28;20152;-81
2023/07/05 00:08:59;;;;;;;7.43;4.75;;;;;;;;;;5035611;28;20081;-82
2023/07/05 00:11:25;;;;;;;5.15;4.13;;;;;;;;;;5034617;28;20567;-81
2023/07/05 00:13:51;;;;;;;6.78;4.97;;;;;;;;;;5034607;28;20406;-81
2023/07/05 00:16:17;;;;;;;6.10;5.07;;;;;;;;;;5034789;28;20100;-81
2023/07/05 00:18:43;;;;;;;7.15;4.53;;;;;;;;;;5002020;28;20423;-81
2023/07/05 00:21:10;;;;;;;7.47;5.68;;;;;;;;;;5034719;28;20037;-81
2023/07/05 00:23:37;;;;;;;6.25;4.88;;;;;;;;;;5034958;28;20053;-81
2023/07/05 00:26:03;;;;;;;9.23;5.88;;;;;;;;;;5002077;28;20049;-81
2023/07/05 00:28:33;;;;;;;6.00;5.18;;;;;;;;;;5018272;28;20092;-82
2023/07/05 00:30:59;;;;;;;9.32;5.57;;;;;;;;;;5034458;28;20129;-82
2023/07/05 00:33:25;;;;;;;7.13;5.35;;;;;;;;;;5034439;28;20041;-82
2023/07/05 00:35:52;;;;;;;7.15;5.22;;;;;;;;;;5034663;28;20049;-82
2023/07/05 00:38:18;;;;;;;5.85;5.30;;;;;;;;;;5034387;28;20072;-82
2023/07/05 00:40:45;;;;;;;6.88;5.85;;;;;;;;;;5034029;28;20477;-81
2023/07/05 00:43:12;;;;;;;7.53;5.15;;;;;;;;;;5034251;28;20060;-81
2023/07/05 00:45:38;;;;;;;9.48;5.85;;;;;;;;;;5034296;28;20046;-81
2023/07/05 00:48:04;;;;;;;6.60;5.07;;;;;;;;;;5034237;28;20401;-81
2023/07/05 00:50:35;;;;;;;6.45;5.47;;;;;;;;;;5034082;28;20555;-82
2023/07/05 00:53:02;;;;;;;6.97;5.95;;;;;;;;;;5034782;28;20048;-82
2023/07/05 00:55:28;;;;;;;7.85;5.60;;;;;;;;;;5034164;28;20049;-82
2023/07/05 00:57:54;;;;;;;9.30;5.78;;;;;;;;;;5017566;28;20049;-82
2023/07/05 01:00:22;;;;;;;5.93;5.38;;;;;;;;;;5017684;28;20511;-82
2023/07/05 01:02:50;;;;;;;8.93;5.72;;;;;;;;;;5017701;28;20046;-82
2023/07/05 01:05:17;;;;;;;8.38;5.53;;;;;;;;;;5034662;28;20085;-82
2023/07/05 01:07:43;;;;;;;10.10;6.38;;;;;;;;;;5000485;28;20049;-82
2023/07/05 01:10:29;;;;;;;9.05;6.30;;;;;;;;;;5018107;28;20098;-83
2023/07/05 01:13:13;;;;;;;6.28;5.70;;;;;;;;;;5033407;28;20045;-85
2023/07/05 01:15:51;;;;;;;8.68;6.20;;;;;;;;;;5018125;28;20132;-83
2023/07/05 01:18:40;;;;;;;8.95;5.85;;;;;;;;;;5033619;28;20500;-82
2023/07/05 01:21:18;;;;;;;10.68;7.40;;;;;;;;;;5033786;28;20137;-81
2023/07/05 01:23:59;;;;;;;10.55;7.30;;;;;;;;;;5017309;28;20049;-80
2023/07/05 01:26:25;;;;;;;11.70;6.75;;;;;;;;;;5034224;28;20570;-81
2023/07/05 01:28:59;;;;;;;14.80;7.18;;;;;;;;;;5152798;27;1266421;-80
2023/07/05 01:31:44;;;;;;;11.50;6.72;;;;;;;;;;5155132;27;20086;-82
2023/07/05 01:34:14;;;;;;;12.55;8.57;;;;;;;;;;5154948;27;20051;-81
2023/07/05 01:36:41;;;;;;;11.13;7.78;;;;;;;;;;5173177;27;20550;-82
2023/07/05 01:39:07;;;;;;;10.88;7.10;;;;;;;;;;5137082;27;20038;-83
2023/07/05 03:56:00;;;;;;;10.35;9.43;;;;;;;;;;5115930;27;1356990;-83
2023/07/05 03:58:26;;;;;;;9.48;8.65;;;;;;;;;;5130161;28;20048;-82
2023/07/05 04:00:52;;;;;;;9.07;8.25;;;;;;;;;;5131119;28;20047;-82
2023/07/05 04:03:18;;;;;;;6.60;6.05;;;;;;;;;;5130122;28;20047;-81
2023/07/05 04:05:44;;;;;;;8.00;7.10;;;;;;;;;;5130025;28;20523;-81
2023/07/05 04:08:10;;;;;;;6.32;5.82;;;;;;;;;;5130349;28;20043;-81
2023/07/05 04:10:36;;;;;;;5.20;4.70;;;;;;;;;;5109220;28;20044;-82
2023/07/05 04:13:02;;;;;;;4.47;3.83;;;;;;;;;;5092909;28;20185;-81
2023/07/05 04:15:28;;;;;;;3.85;3.53;;;;;;;;;;5075386;28;20044;-84
2023/07/05 04:17:55;;;;;;;5.05;4.18;;;;;;;;;;5092663;28;20101;-81
2023/07/05 04:20:21;;;;;;;3.67;3.35;;;;;;;;;;5092433;28;20048;-81
2023/07/05 04:22:47;;;;;;;4.63;3.60;;;;;;;;;;5093377;28;20083;-81
2023/07/05 04:25:13;;;;;;;3.90;2.97;;;;;;;;;;5092410;28;20047;-81
2023/07/05 04:27:39;;;;;;;2.85;2.60;;;;;;;;;;5110374;28;20552;-81
2023/07/05 04:30:05;;;;;;;2.75;2.42;;;;;;;;;;5092527;28;20097;-81
2023/07/05 04:32:31;;;;;;;4.65;3.03;;;;;;;;;;5092315;28;20044;-81
2023/07/05 04:34:57;;;;;;;3.22;2.55;;;;;;;;;;5092177;28;20160;-81
2023/07/05 04:37:24;;;;;;;3.78;2.53;;;;;;;;;;5110258;28;20101;-81
2023/07/05 04:39:50;;;;;;;3.25;2.28;;;;;;;;;;5109377;28;20074;-80
2023/07/05 04:42:16;;;;;;;2.42;2.08;;;;;;;;;;5109611;28;20055;-81
2023/07/05 04:44:42;;;;;;;5.18;1.90;;;;;;;;;;5108145;28;20044;-81
2023/07/05 04:47:08;;;;;;;2.60;1.88;;;;;;;;;;5091897;28;20480;-81
2023/07/05 04:49:34;;;;;;;2.10;1.42;;;;;;;;;;5074997;28;20048;-80
2023/07/05 04:52:00;;;;;;;1.70;1.60;;;;;;;;;;5109345;28;20058;-81
2023/07/05 04:54:26;;;;;;;2.50;1.88;;;;;;;;;;5091823;28;20047;-81
2023/07/05 04:56:52;;;;;;;3.60;2.45;;;;;;;;;;5095722;28;20059;-80
2023/07/05 04:59:19;;;;;;;2.72;2.00;;;;;;;;;;5078380;28;20044;-80
2023/07/05 05:01:46;;;;;;;2.97;2.70;;;;;;;;;;5078121;28;20134;-81
2023/07/05 05:04:12;;;;;;;2.75;2.55;;;;;;;;;;5095804;28;20105;-81
2023/07/05 05:06:38;;;;;;;3.85;2.10;;;;;;;;;;5078651;28;20044;-81
2023/07/05 05:09:04;;;;;;;2.42;2.28;;;;;;;;;;5078372;28;20098;-82
2023/07/05 05:11:30;;;;;;;3.88;2.13;;;;;;;;;;5095890;28;20556;-81
2023/07/05 05:13:58;;;;;;;2.83;2.13;;;;;;;;;;5094078;28;20047;-82
2023/07/05 05:16:24;;;;;;;2.00;1.83;;;;;;;;;;5094468;28;20047;-81
2023/07/05 05:18:50;;;;;;;2.35;1.88;;;;;;;;;;5095551;28;20485;-81
2023/07/05 05:21:16;;;;;;;2.60;1.60;;;;;;;;;;5078121;28;20052;-81
2023/07/05 05:23:42;;;;;;;3.30;1.95;;;;;;;;;;5094820;28;20040;-80
2023/07/05 05:26:08;;;;;;;2.50;1.80;;;;;;;;;;5095673;28;20048;-81
2023/07/05 05:28:34;;;;;;;1.98;1.77;;;;;;;;;;5094627;28;20504;-81
2023/07/05 05:31:04;;;;;;;2.53;1.02;;;;;;;;;;5077806;28;20135;-82
2023/07/05 05:33:30;;;;;;;3.00;1.60;;;;;;;;;;5094225;28;20083;-81
2023/07/05 05:35:56;;;;;;;2.00;1.80;;;;;;;;;;5094839;28;20401;-80
2023/07/05 05:38:22;;;;;;;1.45;1.20;;;;;;;;;;5095636;28;20087;-80
2023/07/05 05:40:50;;;;;;;1.85;1.27;;;;;;;;;;5077858;28;20047;-81
2023/07/05 05:43:16;;;;;;;2.67;1.50;;;;;;;;;;5111356;28;20051;-80
2023/07/05 05:45:43;;;;;;;2.30;1.35;;;;;;;;;;5113967;28;20039;-81
2023/07/05 05:48:09;;;;;;;2.88;1.73;;;;;;;;;;5114664;28;20144;-81
2023/07/05 05:50:35;;;;;;;1.55;1.42;;;;;;;;;;5114728;28;20096;-80
2023/07/05 05:53:02;;;;;;;2.42;1.40;;;;;;;;;;5097819;28;20472;-81
2023/07/05 05:55:28;;;;;;;3.28;1.65;;;;;;;;;;5114300;28;20056;-82
2023/07/05 05:57:54;;;;;;;2.55;1.75;;;;;;;;;;5114488;28;20051;-81
2023/07/05 06:00:21;;;;;;;4.68;1.75;;;;;;;;;;5115539;28;20055;-81
2023/07/05 06:02:47;;;;;;;2.90;1.95;;;;;;;;;;5114210;28;20047;-81
2023/07/05 06:05:23;;;;;;;1.70;1.60;;;;;;;;;;5114405;28;20047;-81
2023/07/05 06:07:49;;;;;;;2.63;1.38;;;;;;;;;;5113579;28;20047;-81
2023/07/05 06:10:15;;;;;;;2.90;1.88;;;;;;;;;;5115407;28;20096;-81
2023/07/05 06:12:41;;;;;;;1.85;1.30;;;;;;;;;;5114290;28;20048;-80
2023/07/05 06:15:08;;;;;;;2.85;2.05;;;;;;;;;;5096736;28;20378;-81
2023/07/05 06:17:34;;;;;;;2.00;1.80;;;;;;;;;;5114332;28;20464;-81
2023/07/05 06:20:00;;;;;;;3.08;1.80;;;;;;;;;;5114105;28;20048;-81
2023/07/05 06:22:26;;;;;;;2.03;1.73;;;;;;;;;;5114002;28;20090;-82
2023/07/05 06:24:52;;;;;;;1.85;1.73;;;;;;;;;;5113942;28;20159;-81
2023/07/05 06:27:18;;;;;;;3.90;1.88;;;;;;;;;;5096935;28;20043;-81
2023/07/05 06:29:44;;;;;;;1.80;1.60;;;;;;;;;;5113671;28;20092;-80
2023/07/05 06:32:11;;;;;;;4.05;1.90;;;;;;;;;;5097156;28;20047;-81
2023/07/05 06:34:37;;;;;;;3.13;2.10;;;;;;;;;;5097085;28;20050;-81
2023/07/05 06:37:03;;;;;;;3.08;1.80;;;;;;;;;;5113934;28;20396;-81
2023/07/05 06:39:29;;;;;;;2.60;1.58;;;;;;;;;;5113735;28;20389;-81
2023/07/05 06:41:55;;;;;;;3.95;1.40;;;;;;;;;;5113756;28;20054;-82
2023/07/05 06:44:21;;;;;;;2.53;1.77;;;;;;;;;;5096187;28;20039;-81
2023/07/05 06:46:47;;;;;;;2.92;1.60;;;;;;;;;;5113757;28;20039;-81
2023/07/05 06:49:13;;;;;;;1.88;1.70;;;;;;;;;;5113539;28;20039;-81
2023/07/05 06:51:39;;;;;;;2.35;1.88;;;;;;;;;;5113620;28;20070;-82
2023/07/05 06:54:05;;;;;;;2.63;1.40;;;;;;;;;;5114402;28;20039;-81
2023/07/05 06:56:31;;;;;;;2.78;1.50;;;;;;;;;;5096186;28;20480;-81
2023/07/05 06:58:57;;;;;;;2.20;1.58;;;;;;;;;;5096435;28;20124;-81
2023/07/05 07:01:23;;;;;;;2.45;1.33;;;;;;;;;;5113540;28;20098;-81
2023/07/05 07:03:49;;;;;;;2.35;1.30;;;;;;;;;;5113086;28;20044;-81
2023/07/05 07:06:16;;;;;;;2.03;1.52;;;;;;;;;;5107986;28;20046;-82
2023/07/05 07:08:42;;;;;;;3.78;1.42;;;;;;;;;;5079114;28;20116;-82
2023/07/05 07:11:08;;;;;;;2.55;1.00;;;;;;;;;;5098828;28;20093;-83
2023/07/05 07:13:34;;;;;;;3.28;1.45;;;;;;;;;;5090572;28;20500;-81
2023/07/05 07:16:02;;;;;;;2.75;1.35;;;;;;;;;;5096946;28;20123;-83
2023/07/05 07:18:28;;;;;;;2.97;1.50;;;;;;;;;;5109706;28;20051;-81
2023/07/05 07:20:55;;;;;;;5.60;1.55;;;;;;;;;;5109868;28;20126;-81
2023/07/05 07:23:22;;;;;;;3.88;1.63;;;;;;;;;;5111529;28;20505;-83
2023/07/05 07:25:57;;;;;;;3.17;1.13;;;;;;;;;;5108279;28;20136;-83
2023/07/05 07:28:23;;;;;;;3.75;1.10;;;;;;;;;;5113039;28;20047;-83
2023/07/05 07:30:49;;;;;;;3.58;1.20;;;;;;;;;;5110616;28;20457;-81
2023/07/05 07:33:15;;;;;;;1.23;0.85;;;;;;;;;;5112031;28;20055;-83
2023/07/05 07:35:41;;;;;;;3.03;1.27;;;;;;;;;;5108285;28;20376;-82
2023/07/05 07:38:07;;;;;;;1.95;1.10;;;;;;;;;;5111587;28;20058;-81
2023/07/05 07:40:37;;;;;;;3.85;0.70;;;;;;;;;;5094345;28;20135;-82
2023/07/05 07:43:06;;;;;;;1.60;0.82;;;;;;;;;;5111723;28;20051;-81
2023/07/05 07:45:32;;;;;;;3.65;1.17;;;;;;;;;;5110574;28;20484;-81
2023/07/05 07:47:58;;;;;;;2.92;1.20;;;;;;;;;;5094477;28;20048;-84
2023/07/05 07:50:25;;;;;;;1.92;0.50;;;;;;;;;;5108585;28;20052;-83
2023/07/05 07:52:51;;;;;;;1.10;0.40;;;;;;;;;;5112361;28;20043;-84
2023/07/05 07:55:17;;;;;;;3.13;0.70;;;;;;;;;;5112456;28;20109;-81
2023/07/05 07:57:43;;;;;;;1.15;0.50;;;;;;;;;;5094471;28;20404;-81
2023/07/05 08:00:10;;;;;;;1.23;0.50;;;;;;;;;;5111292;28;20082;-83
2023/07/05 08:02:39;;;;;;;0.98;0.40;;;;;;;;;;5083353;28;20048;-83
2023/07/05 08:05:15;;;;;;;0.80;0.15;;;;;;;;;;5074332;28;20083;-83
2023/07/05 08:07:42;;;;;;;1.00;0.32;;;;;;;;;;5078024;28;20044;-82
2023/07/05 08:10:09;;;;;;;0.40;0.20;;;;;;;;;;5094403;28;20048;-82
2023/07/05 08:12:35;;;;;;;0.50;0.20;;;;;;;;;;5095006;28;20096;-82
2023/07/05 08:15:01;;;;;;;0.88;0.20;;;;;;;;;;5111503;28;20039;-84
2023/07/05 08:17:28;;;;;;;2.80;0.30;;;;;;;;;;5094575;28;20060;-81
2023/07/05 08:19:54;;;;;;;1.35;0.25;;;;;;;;;;5111298;28;20113;-83
2023/07/05 08:22:20;;;;;;;0.38;0.17;;;;;;;;;;5111367;28;20564;-81
2023/07/05 08:24:46;;;;;;;1.25;0.15;;;;;;;;;;5111851;28;20096;-82
2023/07/05 08:27:12;;;;;;;0.63;0.20;;;;;;;;;;5112675;28;20048;-84
2023/07/05 08:29:39;;;;;;;1.92;0.20;;;;;;;;;;5075727;28;20050;-83
2023/07/05 08:32:05;;;;;;;0.32;0.10;;;;;;;;;;5115629;28;20044;-84
2023/07/05 08:34:31;;;;;;;2.65;0.20;;;;;;;;;;5099339;28;20035;-84
2023/07/05 08:36:57;;;;;;;0.75;0.20;;;;;;;;;;5117101;28;20093;-83
2023/07/05 08:39:23;;;;;;;1.25;0.10;;;;;;;;;;5082181;28;20047;-83
2023/07/05 08:41:55;;;;;;;0.52;0.10;;;;;;;;;;5097804;28;20405;-81
2023/07/05 08:44:24;;;;;;;1.20;0.20;;;;;;;;;;5108264;28;20105;-81
2023/07/05 08:47:14;;;;;;;2.00;0.20;;;;;;;;;;5104009;28;20105;-82
2023/07/05 08:50:00;;;;;;;1.55;0.20;;;;;;;;;;5083646;28;20091;-82
2023/07/05 08:52:29;;;;;;;1.45;0.20;;;;;;;;;;5109888;28;20051;-82
2023/07/05 08:54:57;;;;;;;0.90;0.22;;;;;;;;;;5114932;28;20056;-81
2023/07/05 08:57:27;;;;;;;1.38;0.17;;;;;;;;;;5114026;28;20056;-82
2023/07/05 09:00:01;;;;;;;1.65;0.20;;;;;;;;;;5114869;28;20051;-83
2023/07/05 09:02:27;;;;;;;6.00;0.30;;;;;;;;;;5093912;28;20040;-81
2023/07/05 09:04:57;;;;;;;1.30;0.20;;;;;;;;;;5078036;28;20328;-81
2023/07/05 09:07:43;;;;;;;1.95;0.30;;;;;;;;;;5108505;28;20109;-82
2023/07/05 09:10:14;;;;;;;1.38;0.30;;;;;;;;;;5114784;28;20055;-81
2023/07/05 09:13:04;;;;;;;2.17;0.40;;;;;;;;;;5114488;28;20040;-81
2023/07/05 09:15:36;;;;;;;1.35;0.20;;;;;;;;;;5117250;28;20040;-81
2023/07/05 09:18:11;;;;;;;0.73;0.22;;;;;;;;;;5116608;28;20049;-83
2023/07/05 09:20:56;;;;;;;0.95;0.30;;;;;;;;;;5115841;28;20043;-83
2023/07/05 09:23:25;;;;;;;2.63;0.50;;;;;;;;;;5116945;28;20090;-85
2023/07/05 09:25:55;;;;;;;2.55;0.30;;;;;;;;;;5094450;28;20047;-83
2023/07/05 09:28:21;;;;;;;0.82;0.20;;;;;;;;;;5092899;28;20566;-82
2023/07/05 09:30:47;;;;;;;2.58;0.20;;;;;;;;;;5094809;28;20044;-83
2023/07/05 09:33:21;;;;;;;4.57;0.63;;;;;;;;;;5095960;28;20508;-84
2023/07/05 09:35:48;;;;;;;2.13;0.30;;;;;;;;;;5078343;28;20172;-83
2023/07/05 09:38:25;;;;;;;3.25;0.30;;;;;;;;;;5078603;28;20044;-83
2023/07/05 09:40:55;;;;;;;1.52;0.40;;;;;;;;;;5077872;28;20058;-83
2023/07/05 09:43:32;;;;;;;1.42;0.30;;;;;;;;;;5094296;28;20048;-82
2023/07/05 09:46:06;;;;;;;1.40;0.35;;;;;;;;;;5094551;28;20052;-84
2023/07/05 09:48:40;;;;;;;2.47;0.40;;;;;;;;;;5094920;28;20055;-83
2023/07/05 09:51:07;;;;;;;3.33;0.30;;;;;;;;;;5078091;28;20524;-82
2023/07/05 09:53:40;;;;;;;3.63;0.43;;;;;;;;;;5094590;28;20134;-82
2023/07/05 09:56:14;;;;;;;3.45;0.52;;;;;;;;;;5094569;28;20189;-81
2023/07/05 09:58:43;;;;;;;3.08;0.47;;;;;;;;;;5094534;28;20051;-83
2023/07/05 10:01:12;;;;;;;4.53;0.68;;;;;;;;;;5061555;28;20388;-82
2023/07/05 10:03:43;;;;;;;4.53;0.50;;;;;;;;;;5094692;28;20055;-82
2023/07/05 10:06:12;;;;;;;5.07;0.98;;;;;;;;;;5094596;28;20048;-82
2023/07/05 10:08:43;;;;;;;4.82;0.50;;;;;;;;;;5094124;28;20044;-81
2023/07/05 10:11:39;;;;;;;5.45;0.50;;;;;;;;;;5077508;28;20127;-83
2023/07/05 10:14:12;;;;;;;2.78;0.57;;;;;;;;;;5080976;28;20052;-84
2023/07/05 10:16:55;;;;;;;4.95;0.70;;;;;;;;;;5077474;28;20220;-81
2023/07/05 10:19:21;;;;;;;2.00;0.30;;;;;;;;;;5093911;28;20044;-81
2023/07/05 10:21:48;;;;;;;2.38;0.50;;;;;;;;;;5093997;28;20127;-79
2023/07/05 10:24:16;;;;;;;6.10;0.73;;;;;;;;;;5076859;28;20050;-80
2023/07/05 10:26:42;;;;;;;3.92;0.45;;;;;;;;;;5093560;28;20039;-79
2023/07/05 10:29:09;;;;;;;3.17;0.40;;;;;;;;;;5093679;28;20069;-79
2023/07/05 10:31:35;;;;;;;5.40;0.82;;;;;;;;;;5076836;28;20060;-80
2023/07/05 10:34:06;;;;;;;2.60;0.57;;;;;;;;;;5094739;28;20126;-80
2023/07/05 10:36:32;;;;;;;4.20;0.45;;;;;;;;;;5076717;28;20052;-79
2023/07/05 10:38:58;;;;;;;4.03;0.43;;;;;;;;;;5093470;28;20054;-80
2023/07/05 10:41:32;;;;;;;2.75;0.43;;;;;;;;;;5104644;28;20048;-82
2023/07/05 10:44:01;;;;;;;4.95;0.52;;;;;;;;;;5090448;28;20053;-82
2023/07/05 10:46:27;;;;;;;3.47;0.55;;;;;;;;;;5109417;28;20123;-81
2023/07/05 10:48:54;;;;;;;2.85;0.30;;;;;;;;;;5092872;28;20131;-83
2023/07/05 10:51:24;;;;;;;2.15;0.30;;;;;;;;;;5114496;28;20130;-81
2023/07/05 10:53:58;;;;;;;2.80;0.40;;;;;;;;;;5112855;28;20090;-80
2023/07/05 10:56:27;;;;;;;3.88;0.50;;;;;;;;;;5096355;28;20139;-82
2023/07/05 10:59:19;;;;;;;5.07;0.55;;;;;;;;;;5114159;28;20059;-82
2023/07/05 11:01:54;;;;;;;4.60;0.50;;;;;;;;;;5082516;28;20052;-81
2023/07/05 11:04:22;;;;;;;3.40;0.40;;;;;;;;;;5114234;28;20425;-81
2023/07/05 11:06:48;;;;;;;2.95;0.43;;;;;;;;;;5113103;28;20054;-85
2023/07/05 11:09:14;;;;;;;3.95;0.50;;;;;;;;;;5095952;28;20044;-83
2023/07/05 11:11:47;;;;;;;3.53;1.13;;;;;;;;;;5113209;28;20058;-82
2023/07/05 11:14:14;;;;;;;5.28;0.60;;;;;;;;;;5112790;28;20051;-84
2023/07/05 11:16:42;;;;;;;6.25;0.98;;;;;;;;;;5093592;28;20495;-83
2023/07/05 11:19:11;;;;;;;4.10;0.70;;;;;;;;;;5113088;28;20036;-84
2023/07/05 11:21:44;;;;;;;4.28;0.75;;;;;;;;;;5095886;28;20048;-83
2023/07/05 11:24:29;;;;;;;8.88;0.90;;;;;;;;;;5092302;28;20040;-84
2023/07/05 11:26:55;;;;;;;4.90;0.85;;;;;;;;;;5112502;28;20043;-82
2023/07/05 11:29:27;;;;;;;3.88;0.73;;;;;;;;;;5108525;28;20044;-84
2023/07/05 11:31:53;;;;;;;7.13;0.90;;;;;;;;;;5108228;28;21353;-83
2023/07/05 11:34:25;;;;;;;5.63;0.70;;;;;;;;;;5109899;28;20515;-83
2023/07/05 11:36:53;;;;;;;5.30;1.15;;;;;;;;;;5095924;28;20109;-83
2023/07/05 11:39:35;;;;;;;4.35;0.90;;;;;;;;;;5105889;28;20040;-86
2023/07/05 11:42:13;;;;;;;5.32;1.17;;;;;;;;;;5112463;28;20054;-85
2023/07/05 11:44:40;;;;;;;4.78;0.68;;;;;;;;;;5111933;28;20453;-87
2023/07/05 11:47:10;;;;;;;4.57;0.95;;;;;;;;;;5113262;28;20167;-87
2023/07/05 11:49:40;;;;;;;3.35;0.70;;;;;;;;;;5113306;28;20047;-84
2023/07/05 11:52:17;;;;;;;4.60;1.00;;;;;;;;;;5111349;28;20541;-85
2023/07/05 11:54:47;;;;;;;5.57;1.25;;;;;;;;;;5112529;28;20047;-84
2023/07/05 11:57:14;;;;;;;2.00;0.60;;;;;;;;;;5112437;28;20035;-86
2023/07/05 11:59:47;;;;;;;1.67;0.50;;;;;;;;;;5113199;28;20057;-84
2023/07/05 12:02:32;;;;;;;3.65;0.55;;;;;;;;;;5112438;28;20123;-84
2023/07/05 12:05:00;;;;;;;5.18;0.50;;;;;;;;;;5108758;28;20042;-82
2023/07/05 12:07:26;;;;;;;6.40;0.75;;;;;;;;;;5103450;28;20035;-82
2023/07/05 12:09:55;;;;;;;2.50;0.30;;;;;;;;;;5116854;28;20051;-83
2023/07/05 12:12:22;;;;;;;5.97;0.80;;;;;;;;;;5115246;28;20047;-82
2023/07/05 12:14:48;;;;;;;3.58;0.60;;;;;;;;;;5116152;28;20055;-85
2023/07/05 12:17:17;;;;;;;1.58;0.43;;;;;;;;;;5116727;28;20496;-83
2023/07/05 12:19:44;;;;;;;7.85;0.80;;;;;;;;;;5095518;28;20090;-85
2023/07/05 12:22:19;;;;;;;3.60;0.52;;;;;;;;;;5110214;28;20055;-85
2023/07/05 12:24:49;;;;;;;3.72;0.75;;;;;;;;;;5115186;28;20043;-85
2023/07/05 12:27:23;;;;;;;5.05;1.10;;;;;;;;;;5116013;28;20035;-83
2023/07/05 12:29:51;;;;;;;4.38;1.05;;;;;;;;;;5116800;28;20051;-84
2023/07/05 12:32:18;;;;;;;5.05;1.00;;;;;;;;;;5099079;28;20047;-85
2023/07/05 12:34:45;;;;;;;8.43;1.30;;;;;;;;;;5114683;28;20043;-85
2023/07/05 12:37:11;;;;;;;7.55;1.48;;;;;;;;;;5079622;28;20052;-82
2023/07/05 12:39:41;;;;;;;5.93;1.27;;;;;;;;;;5087665;28;20059;-84
2023/07/05 12:42:14;;;;;;;6.45;1.35;;;;;;;;;;5116431;28;20066;-82
2023/07/05 12:44:40;;;;;;;4.75;1.75;;;;;;;;;;5116172;28;20047;-86
2023/07/05 12:47:13;;;;;;;9.07;2.00;;;;;;;;;;5114144;28;20047;-83
2023/07/05 12:49:39;;;;;;;5.15;1.10;;;;;;;;;;5095823;28;20378;-83
2023/07/05 12:52:05;;;;;;;6.78;1.20;;;;;;;;;;5087762;28;20047;-83
2023/07/05 12:54:31;;;;;;;6.38;1.58;;;;;;;;;;5077837;28;20074;-83
2023/07/05 12:56:58;;;;;;;8.05;0.90;;;;;;;;;;5116210;28;20122;-83
2023/07/05 12:59:31;;;;;;;4.57;1.15;;;;;;;;;;5116131;28;20492;-84
2023/07/05 13:01:57;;;;;;;6.65;1.23;;;;;;;;;;5099055;28;20492;-86
2023/07/05 13:04:24;;;;;;;5.65;1.10;;;;;;;;;;5116380;28;20109;-85
2023/07/05 13:06:54;;;;;;;5.93;1.08;;;;;;;;;;5096599;28;20048;-86
2023/07/05 13:09:28;;;;;;;4.22;0.75;;;;;;;;;;5116130;28;20053;-85
2023/07/05 13:12:05;;;;;;;6.95;0.93;;;;;;;;;;5099171;28;20044;-83
2023/07/05 13:14:32;;;;;;;7.80;1.23;;;;;;;;;;5115208;28;20051;-83
2023/07/05 13:17:00;;;;;;;8.18;1.55;;;;;;;;;;5096667;28;20749;-83
2023/07/05 13:19:39;;;;;;;6.25;1.10;;;;;;;;;;5115478;28;20387;-83
2023/07/05 13:22:16;;;;;;;5.32;1.00;;;;;;;;;;5115505;28;20047;-83
2023/07/05 13:24:45;;;;;;;5.65;1.00;;;;;;;;;;5098028;28;20489;-82
2023/07/05 13:27:16;;;;;;;3.90;1.10;;;;;;;;;;5113389;28;20036;-81
2023/07/05 13:29:42;;;;;;;7.45;0.88;;;;;;;;;;5114717;28;20074;-82
2023/07/05 13:32:27;;;;;;;3.15;0.73;;;;;;;;;;5094483;28;20466;-81
2023/07/05 13:34:54;;;;;;;5.25;0.80;;;;;;;;;;5114512;28;20091;-82
2023/07/05 13:37:22;;;;;;;7.15;0.80;;;;;;;;;;5097606;28;20051;-82
2023/07/05 13:39:48;;;;;;;6.00;0.90;;;;;;;;;;5114122;28;20068;-82
2023/07/05 13:42:14;;;;;;;4.55;0.73;;;;;;;;;;5115088;28;20539;-81
2023/07/05 13:44:44;;;;;;;5.45;0.90;;;;;;;;;;5114197;28;20104;-82
2023/07/05 13:47:11;;;;;;;2.70;0.75;;;;;;;;;;5114719;28;20039;-84
2023/07/05 13:49:37;;;;;;;4.22;1.00;;;;;;;;;;5097631;28;20051;-83
2023/07/05 13:52:07;;;;;;;3.65;1.15;;;;;;;;;;5093352;28;20496;-81
2023/07/05 13:54:33;;;;;;;4.25;0.80;;;;;;;;;;5110910;28;20050;-82
2023/07/05 13:57:00;;;;;;;2.20;0.70;;;;;;;;;;5098049;28;20051;-83
2023/07/05 13:59:26;;;;;;;2.53;0.63;;;;;;;;;;5109351;28;20044;-83
2023/07/05 14:01:52;;;;;;;3.10;0.63;;;;;;;;;;5095266;28;20048;-83
2023/07/05 14:04:18;;;;;;;3.58;0.47;;;;;;;;;;5094972;28;20040;-82
2023/07/05 14:06:44;;;;;;;1.58;0.50;;;;;;;;;;5113782;28;20092;-85
2023/07/05 14:09:11;;;;;;;3.13;0.60;;;;;;;;;;5115110;28;20392;-83
2023/07/05 14:11:38;;;;;;;3.50;0.50;;;;;;;;;;5097224;28;20505;-83
2023/07/05 14:14:05;;;;;;;3.83;0.75;;;;;;;;;;5112636;28;20507;-83
2023/07/05 14:16:33;;;;;;;2.05;0.40;;;;;;;;;;5115354;28;20446;-84
2023/07/05 14:18:59;;;;;;;5.35;0.70;;;;;;;;;;5097000;28;20055;-83
2023/07/05 14:21:25;;;;;;;4.43;0.60;;;;;;;;;;5094021;28;20046;-83
2023/07/05 14:23:51;;;;;;;3.85;0.80;;;;;;;;;;5104878;28;20036;-83
2023/07/05 14:26:18;;;;;;;4.15;0.73;;;;;;;;;;5093709;28;20072;-82
2023/07/05 14:28:44;;;;;;;4.72;0.70;;;;;;;;;;5112974;28;20480;-83
2023/07/05 14:31:15;;;;;;;5.53;0.65;;;;;;;;;;5113846;28;20044;-83
2023/07/05 14:33:41;;;;;;;5.70;0.60;;;;;;;;;;5114073;28;20058;-83
2023/07/05 14:36:11;;;;;;;3.33;0.60;;;;;;;;;;5114823;28;20043;-83
2023/07/05 14:38:37;;;;;;;2.85;0.60;;;;;;;;;;5114741;28;20051;-83
2023/07/05 14:41:06;;;;;;;5.63;0.60;;;;;;;;;;5115063;28;20043;-83
2023/07/05 14:43:32;;;;;;;2.05;0.50;;;;;;;;;;5096809;28;20040;-83
2023/07/05 14:45:58;;;;;;;4.82;0.93;;;;;;;;;;5112767;28;20091;-83
2023/07/05 14:48:24;;;;;;;5.45;0.80;;;;;;;;;;5093447;28;20116;-82
2023/07/05 14:50:51;;;;;;;1.95;0.60;;;;;;;;;;5112235;28;20434;-83
2023/07/05 14:53:18;;;;;;;5.40;0.80;;;;;;;;;;5093114;28;20044;-82
2023/07/05 14:55:46;;;;;;;3.05;0.60;;;;;;;;;;5075984;28;20066;-83
2023/07/05 14:58:13;;;;;;;5.20;0.50;;;;;;;;;;5095272;28;20083;-81
2023/07/05 15:00:40;;;;;;;1.80;0.50;;;;;;;;;;5077297;28;20455;-82
2023/07/05 15:03:07;;;;;;;2.88;0.70;;;;;;;;;;5092825;28;20493;-82
2023/07/05 15:05:33;;;;;;;3.85;0.47;;;;;;;;;;5094213;28;20059;-82
2023/07/05 15:08:02;;;;;;;2.58;0.70;;;;;;;;;;5077305;28;20044;-82
2023/07/05 15:10:29;;;;;;;2.42;0.40;;;;;;;;;;5092920;28;20139;-82
2023/07/05 15:12:55;;;;;;;4.40;0.60;;;;;;;;;;5076309;28;20040;-82
2023/07/05 15:15:28;;;;;;;1.50;0.40;;;;;;;;;;5092397;28;20048;-82
2023/07/05 15:17:55;;;;;;;4.75;0.40;;;;;;;;;;5093870;28;20052;-82
2023/07/05 15:20:22;;;;;;;1.95;0.40;;;;;;;;;;5094026;28;20047;-82
2023/07/05 15:22:48;;;;;;;2.03;0.40;;;;;;;;;;5093807;28;20048;-82
2023/07/05 15:25:16;;;;;;;3.25;0.40;;;;;;;;;;5092491;28;20079;-82
2023/07/05 15:27:43;;;;;;;4.43;0.60;;;;;;;;;;5093604;28;20040;-82
2023/07/05 15:30:10;;;;;;;2.67;0.80;;;;;;;;;;5093959;28;20048;-82
2023/07/05 15:32:37;;;;;;;2.45;0.40;;;;;;;;;;5092862;28;20424;-81
2023/07/05 15:35:04;;;;;;;1.65;0.30;;;;;;;;;;5076162;28;20105;-80
2023/07/05 15:37:30;;;;;;;2.90;0.70;;;;;;;;;;5092457;28;20032;-82
2023/07/05 15:39:56;;;;;;;3.40;0.65;;;;;;;;;;5101676;28;20101;-82
2023/07/05 15:42:23;;;;;;;3.38;0.55;;;;;;;;;;5112814;28;20544;-82
2023/07/05 15:44:49;;;;;;;2.42;0.40;;;;;;;;;;5112568;28;20040;-82
2023/07/05 15:47:15;;;;;;;3.88;1.00;;;;;;;;;;5113924;28;20575;-81
2023/07/05 15:49:42;;;;;;;2.47;0.57;;;;;;;;;;5109409;28;20032;-82
2023/07/05 15:52:08;;;;;;;1.70;0.45;;;;;;;;;;5076895;28;20097;-82
2023/07/05 15:54:35;;;;;;;4.55;0.60;;;;;;;;;;5075538;28;20084;-82
2023/07/05 15:57:02;;;;;;;4.03;1.35;;;;;;;;;;5092389;28;20515;-82
2023/07/05 15:59:33;;;;;;;3.08;0.98;;;;;;;;;;5092519;28;20070;-82
2023/07/05 16:02:03;;;;;;;3.63;0.75;;;;;;;;;;5092273;28;20063;-82
2023/07/05 16:04:30;;;;;;;5.00;0.57;;;;;;;;;;5075228;28;20044;-82
2023/07/05 16:06:57;;;;;;;1.50;0.30;;;;;;;;;;5093480;28;20044;-81
2023/07/05 16:09:23;;;;;;;2.65;0.80;;;;;;;;;;5091996;28;20044;-82
2023/07/05 16:11:49;;;;;;;1.25;0.40;;;;;;;;;;5070042;28;20142;-82
2023/07/05 16:14:16;;;;;;;1.67;0.50;;;;;;;;;;5091857;28;20393;-81
2023/07/05 16:16:42;;;;;;;3.83;0.90;;;;;;;;;;5075352;28;20048;-82
2023/07/05 16:19:08;;;;;;;2.50;0.60;;;;;;;;;;5093262;28;20109;-82
2023/07/05 16:21:36;;;;;;;2.10;0.50;;;;;;;;;;5094364;28;20048;-83
2023/07/05 16:24:02;;;;;;;2.08;0.38;;;;;;;;;;5093088;28;20047;-81
2023/07/05 16:26:29;;;;;;;2.67;0.40;;;;;;;;;;5093304;28;20044;-81
2023/07/05 16:28:55;;;;;;;3.40;0.70;;;;;;;;;;5092018;28;20080;-82
2023/07/05 16:31:21;;;;;;;1.83;0.47;;;;;;;;;;5076480;28;20050;-83
2023/07/05 16:33:47;;;;;;;4.40;0.68;;;;;;;;;;5092022;28;20089;-82
2023/07/05 16:36:14;;;;;;;3.67;0.40;;;;;;;;;;5058734;28;20048;-82
2023/07/05 16:38:41;;;;;;;2.25;0.40;;;;;;;;;;5075325;28;20134;-82
2023/07/05 16:41:07;;;;;;;3.63;0.75;;;;;;;;;;5092118;28;20485;-82
2023/07/05 16:43:33;;;;;;;2.13;0.57;;;;;;;;;;5088767;28;20052;-82
2023/07/05 16:46:03;;;;;;;2.83;0.50;;;;;;;;;;5091562;28;20056;-82
2023/07/05 16:48:30;;;;;;;2.70;0.45;;;;;;;;;;5091623;28;20047;-82
2023/07/05 16:50:58;;;;;;;2.45;0.50;;;;;;;;;;5091618;28;20048;-82
2023/07/05 16:53:24;;;;;;;1.50;0.38;;;;;;;;;;5098429;28;20047;-82
2023/07/05 16:55:53;;;;;;;1.85;0.50;;;;;;;;;;5098824;28;20058;-82
2023/07/05 16:58:21;;;;;;;2.65;1.00;;;;;;;;;;5099075;28;20051;-82
2023/07/05 17:00:56;;;;;;;1.95;0.30;;;;;;;;;;5115860;28;20044;-82
2023/07/05 17:03:23;;;;;;;2.30;0.30;;;;;;;;;;5113914;28;20048;-82
2023/07/05 17:05:53;;;;;;;1.00;0.40;;;;;;;;;;5115404;28;20243;-82